sensor_id;sensor_type;location;lat;lon;timestamp;temperature;humidity
7648;DHT22;3866;48.020;11.720;2023-04-15T00:01:41;4.20;99.90
7648;DHT22;3866;48.020;11.720;2023-04-15T00:04:08;4.20;99.90
7648;DHT22;3866;48.020;11.720;2023-04-15T00:06:36;4.20;99.90
7648;DHT22;3866;48.020;11.720;2023-04-15T00:09:05;4.10;99.90
7648;DHT22;3866;48.020;11.720;2023-04-15T00:11:32;4.20;99.90
7648;DHT22;3866;48.020;11.720;2023-04-15T00:13:59;4.20;99.90
7648;DHT22;3866;48.020;11.720;2023-04-15T00:16:26;4.20;99.90
7648;DHT22;3866;48.020;11.720;2023-04-15T00:18:52;4.10;99.90
7648;DHT22;3866;48.020;11.720;2023-04-15T00:21:20;4.20;99.90
7648;DHT22;3866;48.020;11.720;2023-04-15T00:23:46;4.20;99.90
7648;DHT22;3866;48.020;11.720;2023-04-15T00:26:18;4.10;99.90
7648;DHT22;3866;48.020;11.720;2023-04-15T00:28:45;4.10;99.90
7648;DHT22;3866;48.020;11.720;2023-04-15T00:31:12;4.10;99.90
7648;DHT22;3866;48.020;11.720;2023-04-15T00:33:39;4.10;99.90
7648;DHT22;3866;48.020;11.720;2023-04-15T00:36:06;4.20;99.90
7648;DHT22;3866;48.020;11.720;2023-04-15T00:38:35;4.10;99.90
7648;DHT22;3866;48.020;11.720;2023-04-15T00:41:02;4.10;99.90
7648;DHT22;3866;48.020;11.720;2023-04-15T00:43:30;4.10;99.90
7648;DHT22;3866;48.020;11.720;2023-04-15T00:45:58;4.10;99.90
7648;DHT22;3866;48.020;11.720;2023-04-15T00:48:27;4.10;99.90
7648;DHT22;3866;48.020;11.720;2023-04-15T00:50:54;4.10;99.90
7648;DHT22;3866;48.020;11.720;2023-04-15T00:53:21;4.10;99.90
7648;DHT22;3866;48.020;11.720;2023-04-15T00:55:48;4.10;99.90
7648;DHT22;3866;48.020;11.720;2023-04-15T00:58:16;4.10;99.90
7648;DHT22;3866;48.020;11.720;2023-04-15T01:00:45;4.10;99.90
7648;DHT22;3866;48.020;11.720;2023-04-15T01:03:12;4.10;99.90
7648;DHT22;3866;48.020;11.720;2023-04-15T01:05:39;4.20;99.90
7648;DHT22;3866;48.020;11.720;2023-04-15T01:08:06;4.10;99.90
7648;DHT22;3866;48.020;11.720;2023-04-15T01:10:34;4.10;99.90
7648;DHT22;3866;48.020;11.720;2023-04-15T01:13:02;4.20;99.90
7648;DHT22;3866;48.020;11.720;2023-04-15T01:15:29;4.10;99.90
7648;DHT22;3866;48.020;11.720;2023-04-15T01:17:58;4.10;99.90
7648;DHT22;3866;48.020;11.720;2023-04-15T01:20:25;4.10;99.90
7648;DHT22;3866;48.020;11.720;2023-04-15T01:22:53;4.10;99.90
7648;DHT22;3866;48.020;11.720;2023-04-15T01:25:29;4.10;99.90
7648;DHT22;3866;48.020;11.720;2023-04-15T01:27:57;4.20;99.90
7648;DHT22;3866;48.020;11.720;2023-04-15T01:30:24;4.10;99.90
7648;DHT22;3866;48.020;11.720;2023-04-15T01:32:51;4.20;99.90
7648;DHT22;3866;48.020;11.720;2023-04-15T01:35:18;4.20;99.90
7648;DHT22;3866;48.020;11.720;2023-04-15T01:37:45;4.20;99.90
7648;DHT22;3866;48.020;11.720;2023-04-15T01:40:13;4.20;99.90
7648;DHT22;3866;48.020;11.720;2023-04-15T01:42:41;4.20;99.90
7648;DHT22;3866;48.020;11.720;2023-04-15T01:45:08;4.30;99.90
7648;DHT22;3866;48.020;11.720;2023-04-15T01:47:35;4.20;99.90
7648;DHT22;3866;48.020;11.720;2023-04-15T01:50:03;4.20;99.90
7648;DHT22;3866;48.020;11.720;2023-04-15T01:52:30;4.10;99.90
7648;DHT22;3866;48.020;11.720;2023-04-15T01:54:56;4.20;99.90
7648;DHT22;3866;48.020;11.720;2023-04-15T01:57:23;4.20;99.90
7648;DHT22;3866;48.020;11.720;2023-04-15T01:59:52;4.20;99.90
7648;DHT22;3866;48.020;11.720;2023-04-15T02:02:19;4.10;99.90
7648;DHT22;3866;48.020;11.720;2023-04-15T02:04:45;4.20;99.90
7648;DHT22;3866;48.020;11.720;2023-04-15T02:07:12;4.10;99.90
7648;DHT22;3866;48.020;11.720;2023-04-15T02:09:39;4.20;99.90
7648;DHT22;3866;48.020;11.720;2023-04-15T02:12:07;4.20;99.90
7648;DHT22;3866;48.020;11.720;2023-04-15T02:14:33;4.10;99.90
7648;DHT22;3866;48.020;11.720;2023-04-15T02:17:02;4.20;99.90
7648;DHT22;3866;48.020;11.720;2023-04-15T02:19:32;4.20;99.90
7648;DHT22;3866;48.020;11.720;2023-04-15T02:21:59;4.20;99.90
7648;DHT22;3866;48.020;11.720;2023-04-15T02:24:28;4.20;99.90
7648;DHT22;3866;48.020;11.720;2023-04-15T02:26:55;4.20;99.90
7648;DHT22;3866;48.020;11.720;2023-04-15T02:29:21;4.20;99.90
7648;DHT22;3866;48.020;11.720;2023-04-15T02:31:48;4.20;99.90
7648;DHT22;3866;48.020;11.720;2023-04-15T02:34:17;4.20;99.90
7648;DHT22;3866;48.020;11.720;2023-04-15T02:36:43;4.20;99.90
7648;DHT22;3866;48.020;11.720;2023-04-15T02:39:11;4.20;99.90
7648;DHT22;3866;48.020;11.720;2023-04-15T02:41:41;4.20;99.90
7648;DHT22;3866;48.020;11.720;2023-04-15T02:44:12;4.20;99.90
7648;DHT22;3866;48.020;11.720;2023-04-15T02:46:38;4.10;99.90
7648;DHT22;3866;48.020;11.720;2023-04-15T02:49:06;4.20;99.90
7648;DHT22;3866;48.020;11.720;2023-04-15T02:51:34;4.20;99.90
7648;DHT22;3866;48.020;11.720;2023-04-15T02:54:01;4.20;99.90
7648;DHT22;3866;48.020;11.720;2023-04-15T02:56:28;4.20;99.90
7648;DHT22;3866;48.020;11.720;2023-04-15T02:58:56;4.20;99.90
7648;DHT22;3866;48.020;11.720;2023-04-15T03:01:23;4.10;99.90
7648;DHT22;3866;48.020;11.720;2023-04-15T03:03:50;4.10;99.90
7648;DHT22;3866;48.020;11.720;2023-04-15T03:06:17;4.20;99.90
7648;DHT22;3866;48.020;11.720;2023-04-15T03:08:45;4.20;99.90
7648;DHT22;3866;48.020;11.720;2023-04-15T03:11:13;4.20;99.90
7648;DHT22;3866;48.020;11.720;2023-04-15T03:13:40;4.20;99.90
7648;DHT22;3866;48.020;11.720;2023-04-15T03:16:08;4.20;99.90
7648;DHT22;3866;48.020;11.720;2023-04-15T03:18:35;4.20;99.90
7648;DHT22;3866;48.020;11.720;2023-04-15T03:21:02;4.30;99.90
7648;DHT22;3866;48.020;11.720;2023-04-15T03:23:30;4.30;99.90
7648;DHT22;3866;48.020;11.720;2023-04-15T03:26:00;4.20;99.90
7648;DHT22;3866;48.020;11.720;2023-04-15T03:28:27;4.30;99.90
7648;DHT22;3866;48.020;11.720;2023-04-15T03:30:54;4.30;99.90
7648;DHT22;3866;48.020;11.720;2023-04-15T03:33:21;4.30;99.90
7648;DHT22;3866;48.020;11.720;2023-04-15T03:35:49;4.30;99.90
7648;DHT22;3866;48.020;11.720;2023-04-15T03:38:17;4.30;99.90
7648;DHT22;3866;48.020;11.720;2023-04-15T03:40:45;4.50;99.90
7648;DHT22;3866;48.020;11.720;2023-04-15T03:43:13;4.40;99.90
7648;DHT22;3866;48.020;11.720;2023-04-15T03:45:41;4.40;99.90
7648;DHT22;3866;48.020;11.720;2023-04-15T03:48:08;4.30;99.90
7648;DHT22;3866;48.020;11.720;2023-04-15T03:50:34;4.40;99.90
7648;DHT22;3866;48.020;11.720;2023-04-15T03:53:01;4.40;99.90
7648;DHT22;3866;48.020;11.720;2023-04-15T03:55:28;4.40;99.90
7648;DHT22;3866;48.020;11.720;2023-04-15T03:57:55;4.40;99.90
7648;DHT22;3866;48.020;11.720;2023-04-15T04:00:23;4.40;99.90
7648;DHT22;3866;48.020;11.720;2023-04-15T04:02:50;4.40;99.90
7648;DHT22;3866;48.020;11.720;2023-04-15T04:05:17;4.40;99.90
7648;DHT22;3866;48.020;11.720;2023-04-15T04:07:44;4.30;99.90
7648;DHT22;3866;48.020;11.720;2023-04-15T04:10:12;4.30;99.90
7648;DHT22;3866;48.020;11.720;2023-04-15T04:12:39;4.20;99.90
7648;DHT22;3866;48.020;11.720;2023-04-15T04:15:06;4.20;99.90
7648;DHT22;3866;48.020;11.720;2023-04-15T04:17:35;4.20;99.90
7648;DHT22;3866;48.020;11.720;2023-04-15T04:20:02;4.10;99.90
7648;DHT22;3866;48.020;11.720;2023-04-15T04:22:29;4.20;99.90
7648;DHT22;3866;48.020;11.720;2023-04-15T04:24:56;4.30;99.90
7648;DHT22;3866;48.020;11.720;2023-04-15T04:27:23;4.30;99.90
7648;DHT22;3866;48.020;11.720;2023-04-15T04:29:50;4.20;99.90
7648;DHT22;3866;48.020;11.720;2023-04-15T04:32:17;4.20;99.90
7648;DHT22;3866;48.020;11.720;2023-04-15T04:34:45;4.30;99.90
7648;DHT22;3866;48.020;11.720;2023-04-15T04:37:12;4.40;99.90
7648;DHT22;3866;48.020;11.720;2023-04-15T04:39:39;4.40;99.90
7648;DHT22;3866;48.020;11.720;2023-04-15T04:42:06;4.30;99.90
7648;DHT22;3866;48.020;11.720;2023-04-15T04:44:33;4.20;99.90
7648;DHT22;3866;48.020;11.720;2023-04-15T04:47:00;4.20;99.90
7648;DHT22;3866;48.020;11.720;2023-04-15T04:49:27;4.20;99.90
7648;DHT22;3866;48.020;11.720;2023-04-15T04:51:55;4.20;99.90
7648;DHT22;3866;48.020;11.720;2023-04-15T04:54:22;4.20;99.90
7648;DHT22;3866;48.020;11.720;2023-04-15T04:56:49;4.20;99.90
7648;DHT22;3866;48.020;11.720;2023-04-15T04:59:16;4.20;99.90
7648;DHT22;3866;48.020;11.720;2023-04-15T05:01:43;4.30;99.90
7648;DHT22;3866;48.020;11.720;2023-04-15T05:04:10;4.20;99.90
7648;DHT22;3866;48.020;11.720;2023-04-15T05:06:37;4.20;99.90
7648;DHT22;3866;48.020;11.720;2023-04-15T05:09:05;4.30;99.90
7648;DHT22;3866;48.020;11.720;2023-04-15T05:11:32;4.10;99.90
7648;DHT22;3866;48.020;11.720;2023-04-15T05:13:59;4.20;99.90
7648;DHT22;3866;48.020;11.720;2023-04-15T05:16:26;4.10;99.90
7648;DHT22;3866;48.020;11.720;2023-04-15T05:18:53;4.20;99.90
7648;DHT22;3866;48.020;11.720;2023-04-15T05:21:20;4.20;99.90
7648;DHT22;3866;48.020;11.720;2023-04-15T05:23:47;4.20;99.90
7648;DHT22;3866;48.020;11.720;2023-04-15T05:26:15;4.30;99.90
7648;DHT22;3866;48.020;11.720;2023-04-15T05:28:42;4.30;99.90
7648;DHT22;3866;48.020;11.720;2023-04-15T05:31:09;4.30;99.90
7648;DHT22;3866;48.020;11.720;2023-04-15T05:33:36;4.30;99.90
7648;DHT22;3866;48.020;11.720;2023-04-15T05:36:03;4.30;99.90
7648;DHT22;3866;48.020;11.720;2023-04-15T05:38:29;4.30;99.90
7648;DHT22;3866;48.020;11.720;2023-04-15T05:40:56;4.30;99.90
7648;DHT22;3866;48.020;11.720;2023-04-15T05:43:25;4.30;99.90
7648;DHT22;3866;48.020;11.720;2023-04-15T05:45:51;4.30;99.90
7648;DHT22;3866;48.020;11.720;2023-04-15T05:48:18;4.30;99.90
7648;DHT22;3866;48.020;11.720;2023-04-15T05:50:45;4.30;99.90
7648;DHT22;3866;48.020;11.720;2023-04-15T05:53:12;4.40;99.90
7648;DHT22;3866;48.020;11.720;2023-04-15T05:55:39;4.40;99.90
7648;DHT22;3866;48.020;11.720;2023-04-15T05:58:06;4.40;99.90
7648;DHT22;3866;48.020;11.720;2023-04-15T06:00:34;4.40;99.90
7648;DHT22;3866;48.020;11.720;2023-04-15T06:03:01;4.50;99.90
7648;DHT22;3866;48.020;11.720;2023-04-15T06:05:28;4.50;99.90
7648;DHT22;3866;48.020;11.720;2023-04-15T06:07:55;4.50;99.90
7648;DHT22;3866;48.020;11.720;2023-04-15T06:10:22;4.60;99.90
7648;DHT22;3866;48.020;11.720;2023-04-15T06:12:49;4.60;99.90
7648;DHT22;3866;48.020;11.720;2023-04-15T06:15:15;4.70;99.90
7648;DHT22;3866;48.020;11.720;2023-04-15T06:17:44;4.70;99.90
7648;DHT22;3866;48.020;11.720;2023-04-15T06:20:12;4.80;99.90
7648;DHT22;3866;48.020;11.720;2023-04-15T06:22:39;4.70;99.90
7648;DHT22;3866;48.020;11.720;2023-04-15T06:25:07;4.70;99.90
7648;DHT22;3866;48.020;11.720;2023-04-15T06:27:34;4.80;99.90
7648;DHT22;3866;48.020;11.720;2023-04-15T06:30:01;4.80;99.90
7648;DHT22;3866;48.020;11.720;2023-04-15T06:32:27;4.90;99.90
7648;DHT22;3866;48.020;11.720;2023-04-15T06:34:57;4.80;99.90
7648;DHT22;3866;48.020;11.720;2023-04-15T06:37:24;4.80;99.90
7648;DHT22;3866;48.020;11.720;2023-04-15T06:39:51;4.90;99.90
7648;DHT22;3866;48.020;11.720;2023-04-15T06:42:18;4.90;99.90
7648;DHT22;3866;48.020;11.720;2023-04-15T06:44:45;4.90;99.90
7648;DHT22;3866;48.020;11.720;2023-04-15T06:47:11;4.90;99.90
7648;DHT22;3866;48.020;11.720;2023-04-15T06:49:39;4.90;99.90
7648;DHT22;3866;48.020;11.720;2023-04-15T06:52:09;5.00;99.90
7648;DHT22;3866;48.020;11.720;2023-04-15T06:54:37;5.00;99.90
7648;DHT22;3866;48.020;11.720;2023-04-15T06:57:04;5.00;99.90
7648;DHT22;3866;48.020;11.720;2023-04-15T06:59:31;5.10;99.90
7648;DHT22;3866;48.020;11.720;2023-04-15T07:01:58;5.10;99.90
7648;DHT22;3866;48.020;11.720;2023-04-15T07:04:25;5.20;99.90
7648;DHT22;3866;48.020;11.720;2023-04-15T07:06:52;5.20;99.90
7648;DHT22;3866;48.020;11.720;2023-04-15T07:09:21;5.30;99.90
7648;DHT22;3866;48.020;11.720;2023-04-15T07:11:48;5.40;99.90
7648;DHT22;3866;48.020;11.720;2023-04-15T07:14:16;5.50;99.90
7648;DHT22;3866;48.020;11.720;2023-04-15T07:16:43;5.60;99.90
7648;DHT22;3866;48.020;11.720;2023-04-15T07:19:10;5.80;99.90
7648;DHT22;3866;48.020;11.720;2023-04-15T07:21:37;5.90;99.90
7648;DHT22;3866;48.020;11.720;2023-04-15T07:24:04;6.00;99.90
7648;DHT22;3866;48.020;11.720;2023-04-15T07:26:32;6.10;99.90
7648;DHT22;3866;48.020;11.720;2023-04-15T07:28:59;6.20;99.90
7648;DHT22;3866;48.020;11.720;2023-04-15T07:31:26;6.10;99.90
7648;DHT22;3866;48.020;11.720;2023-04-15T07:33:53;6.10;99.90
7648;DHT22;3866;48.020;11.720;2023-04-15T07:36:20;6.20;99.90
7648;DHT22;3866;48.020;11.720;2023-04-15T07:38:46;6.40;99.90
7648;DHT22;3866;48.020;11.720;2023-04-15T07:41:13;6.70;99.90
7648;DHT22;3866;48.020;11.720;2023-04-15T07:43:43;6.90;99.90
7648;DHT22;3866;48.020;11.720;2023-04-15T07:46:10;6.90;99.90
7648;DHT22;3866;48.020;11.720;2023-04-15T07:48:37;6.80;99.90
7648;DHT22;3866;48.020;11.720;2023-04-15T07:51:04;7.20;99.90
7648;DHT22;3866;48.020;11.720;2023-04-15T07:53:31;7.30;99.90
7648;DHT22;3866;48.020;11.720;2023-04-15T07:55:58;7.60;99.90
7648;DHT22;3866;48.020;11.720;2023-04-15T07:58:25;7.60;99.90
7648;DHT22;3866;48.020;11.720;2023-04-15T08:00:53;7.70;99.90
7648;DHT22;3866;48.020;11.720;2023-04-15T08:03:21;7.50;99.90
7648;DHT22;3866;48.020;11.720;2023-04-15T08:05:48;7.60;99.90
7648;DHT22;3866;48.020;11.720;2023-04-15T08:08:14;7.70;99.90
7648;DHT22;3866;48.020;11.720;2023-04-15T08:10:41;7.60;99.90
7648;DHT22;3866;48.020;11.720;2023-04-15T08:13:08;7.60;99.90
7648;DHT22;3866;48.020;11.720;2023-04-15T08:15:35;7.70;99.90
7648;DHT22;3866;48.020;11.720;2023-04-15T08:18:03;7.80;99.90
7648;DHT22;3866;48.020;11.720;2023-04-15T08:20:30;7.70;99.90
7648;DHT22;3866;48.020;11.720;2023-04-15T08:23:00;8.00;99.90
7648;DHT22;3866;48.020;11.720;2023-04-15T08:25:27;8.00;99.90
7648;DHT22;3866;48.020;11.720;2023-04-15T08:27:55;8.00;99.90
7648;DHT22;3866;48.020;11.720;2023-04-15T08:30:22;7.80;99.90
7648;DHT22;3866;48.020;11.720;2023-04-15T08:32:49;7.80;99.90
7648;DHT22;3866;48.020;11.720;2023-04-15T08:35:18;7.80;99.90
7648;DHT22;3866;48.020;11.720;2023-04-15T08:37:45;8.20;99.90
7648;DHT22;3866;48.020;11.720;2023-04-15T08:40:12;8.40;99.90
7648;DHT22;3866;48.020;11.720;2023-04-15T08:42:42;8.30;99.90
7648;DHT22;3866;48.020;11.720;2023-04-15T08:45:10;8.50;99.90
7648;DHT22;3866;48.020;11.720;2023-04-15T08:47:37;8.60;99.90
7648;DHT22;3866;48.020;11.720;2023-04-15T08:50:08;8.60;99.90
7648;DHT22;3866;48.020;11.720;2023-04-15T08:52:38;8.40;99.90
7648;DHT22;3866;48.020;11.720;2023-04-15T08:55:07;8.40;99.90
7648;DHT22;3866;48.020;11.720;2023-04-15T08:57:35;8.30;99.90
7648;DHT22;3866;48.020;11.720;2023-04-15T09:00:03;8.40;99.90
7648;DHT22;3866;48.020;11.720;2023-04-15T09:02:30;8.40;99.90
7648;DHT22;3866;48.020;11.720;2023-04-15T09:04:57;8.40;99.90
7648;DHT22;3866;48.020;11.720;2023-04-15T09:07:24;8.40;99.90
7648;DHT22;3866;48.020;11.720;2023-04-15T09:09:52;8.30;99.90
7648;DHT22;3866;48.020;11.720;2023-04-15T09:12:19;8.40;99.90
7648;DHT22;3866;48.020;11.720;2023-04-15T09:14:47;8.40;99.90
7648;DHT22;3866;48.020;11.720;2023-04-15T09:17:18;8.60;99.90
7648;DHT22;3866;48.020;11.720;2023-04-15T09:19:45;8.60;99.90
7648;DHT22;3866;48.020;11.720;2023-04-15T09:22:12;8.70;99.90
7648;DHT22;3866;48.020;11.720;2023-04-15T09:24:39;8.70;99.90
7648;DHT22;3866;48.020;11.720;2023-04-15T09:27:09;8.70;99.90
7648;DHT22;3866;48.020;11.720;2023-04-15T09:29:36;8.70;99.90
7648;DHT22;3866;48.020;11.720;2023-04-15T09:32:11;8.90;99.90
7648;DHT22;3866;48.020;11.720;2023-04-15T09:34:38;8.80;99.90
7648;DHT22;3866;48.020;11.720;2023-04-15T09:37:05;8.90;99.90
7648;DHT22;3866;48.020;11.720;2023-04-15T09:39:45;8.90;99.90
7648;DHT22;3866;48.020;11.720;2023-04-15T09:42:17;8.90;99.90
7648;DHT22;3866;48.020;11.720;2023-04-15T09:44:48;9.10;99.90
7648;DHT22;3866;48.020;11.720;2023-04-15T09:47:28;8.90;99.90
7648;DHT22;3866;48.020;11.720;2023-04-15T09:49:56;8.90;99.90
7648;DHT22;3866;48.020;11.720;2023-04-15T09:52:23;8.80;99.90
7648;DHT22;3866;48.020;11.720;2023-04-15T09:54:52;9.00;99.90
7648;DHT22;3866;48.020;11.720;2023-04-15T09:57:20;9.10;99.90
7648;DHT22;3866;48.020;11.720;2023-04-15T09:59:48;9.20;99.90
7648;DHT22;3866;48.020;11.720;2023-04-15T10:02:15;9.20;99.90
7648;DHT22;3866;48.020;11.720;2023-04-15T10:04:44;9.10;99.90
7648;DHT22;3866;48.020;11.720;2023-04-15T10:07:14;8.90;99.90
7648;DHT22;3866;48.020;11.720;2023-04-15T10:09:43;8.90;99.90
7648;DHT22;3866;48.020;11.720;2023-04-15T10:12:11;8.70;99.90
7648;DHT22;3866;48.020;11.720;2023-04-15T10:14:40;8.70;99.90
7648;DHT22;3866;48.020;11.720;2023-04-15T10:17:10;8.60;99.90
7648;DHT22;3866;48.020;11.720;2023-04-15T10:19:37;8.50;99.90
7648;DHT22;3866;48.020;11.720;2023-04-15T10:22:04;8.40;99.90
7648;DHT22;3866;48.020;11.720;2023-04-15T10:24:32;8.30;99.90
7648;DHT22;3866;48.020;11.720;2023-04-15T10:26:59;8.30;99.90
7648;DHT22;3866;48.020;11.720;2023-04-15T10:29:26;8.30;99.90
7648;DHT22;3866;48.020;11.720;2023-04-15T10:31:55;8.30;99.90
7648;DHT22;3866;48.020;11.720;2023-04-15T10:34:23;8.40;99.90
7648;DHT22;3866;48.020;11.720;2023-04-15T10:36:50;8.40;99.90
7648;DHT22;3866;48.020;11.720;2023-04-15T10:39:38;8.50;99.90
7648;DHT22;3866;48.020;11.720;2023-04-15T10:42:06;8.60;99.90
7648;DHT22;3866;48.020;11.720;2023-04-15T10:44:33;8.60;99.90
7648;DHT22;3866;48.020;11.720;2023-04-15T10:47:06;8.70;99.90
7648;DHT22;3866;48.020;11.720;2023-04-15T10:49:42;8.90;99.90
7648;DHT22;3866;48.020;11.720;2023-04-15T10:52:09;8.80;99.90
7648;DHT22;3866;48.020;11.720;2023-04-15T10:54:36;8.90;99.90
7648;DHT22;3866;48.020;11.720;2023-04-15T10:57:08;9.00;99.90
7648;DHT22;3866;48.020;11.720;2023-04-15T11:00:10;9.10;99.90
7648;DHT22;3866;48.020;11.720;2023-04-15T11:02:40;9.00;99.90
7648;DHT22;3866;48.020;11.720;2023-04-15T11:05:07;9.10;99.90
7648;DHT22;3866;48.020;11.720;2023-04-15T11:07:48;9.10;99.90
7648;DHT22;3866;48.020;11.720;2023-04-15T11:13:25;9.60;99.90
7648;DHT22;3866;48.020;11.720;2023-04-15T11:15:58;9.10;99.90
7648;DHT22;3866;48.020;11.720;2023-04-15T11:18:29;9.40;99.90
7648;DHT22;3866;48.020;11.720;2023-04-15T11:20:59;9.40;99.90
7648;DHT22;3866;48.020;11.720;2023-04-15T11:23:28;9.40;99.90
7648;DHT22;3866;48.020;11.720;2023-04-15T11:25:55;9.40;99.90
7648;DHT22;3866;48.020;11.720;2023-04-15T11:28:25;9.50;99.90
7648;DHT22;3866;48.020;11.720;2023-04-15T11:30:52;9.50;99.90
7648;DHT22;3866;48.020;11.720;2023-04-15T11:33:20;9.60;99.90
7648;DHT22;3866;48.020;11.720;2023-04-15T11:35:48;9.80;99.90
7648;DHT22;3866;48.020;11.720;2023-04-15T11:38:15;9.70;99.90
7648;DHT22;3866;48.020;11.720;2023-04-15T11:40:43;9.70;99.90
7648;DHT22;3866;48.020;11.720;2023-04-15T11:43:12;9.90;99.90
7648;DHT22;3866;48.020;11.720;2023-04-15T11:45:48;9.90;99.90
7648;DHT22;3866;48.020;11.720;2023-04-15T11:48:16;10.00;99.90
7648;DHT22;3866;48.020;11.720;2023-04-15T11:50:43;9.70;99.90
7648;DHT22;3866;48.020;11.720;2023-04-15T11:53:12;9.70;99.90
7648;DHT22;3866;48.020;11.720;2023-04-15T11:55:44;9.50;99.90
7648;DHT22;3866;48.020;11.720;2023-04-15T11:58:13;9.50;99.90
7648;DHT22;3866;48.020;11.720;2023-04-15T12:00:44;9.30;99.90
7648;DHT22;3866;48.020;11.720;2023-04-15T12:03:22;9.20;99.90
7648;DHT22;3866;48.020;11.720;2023-04-15T12:06:06;8.90;99.90
7648;DHT22;3866;48.020;11.720;2023-04-15T12:09:08;9.00;99.90
7648;DHT22;3866;48.020;11.720;2023-04-15T12:11:43;9.00;99.90
7648;DHT22;3866;48.020;11.720;2023-04-15T12:14:12;9.00;99.90
7648;DHT22;3866;48.020;11.720;2023-04-15T12:16:43;9.10;99.90
7648;DHT22;3866;48.020;11.720;2023-04-15T12:19:12;9.20;99.90
7648;DHT22;3866;48.020;11.720;2023-04-15T12:21:43;9.20;99.90
7648;DHT22;3866;48.020;11.720;2023-04-15T12:24:11;9.20;99.90
7648;DHT22;3866;48.020;11.720;2023-04-15T12:26:43;9.20;99.90
7648;DHT22;3866;48.020;11.720;2023-04-15T12:29:11;9.10;99.90
7648;DHT22;3866;48.020;11.720;2023-04-15T12:31:46;9.00;99.90
7648;DHT22;3866;48.020;11.720;2023-04-15T12:34:14;8.90;99.90
7648;DHT22;3866;48.020;11.720;2023-04-15T12:36:41;8.70;99.90
7648;DHT22;3866;48.020;11.720;2023-04-15T12:39:08;8.70;99.90
7648;DHT22;3866;48.020;11.720;2023-04-15T12:41:36;8.50;99.90
7648;DHT22;3866;48.020;11.720;2023-04-15T12:44:03;8.40;99.90
7648;DHT22;3866;48.020;11.720;2023-04-15T12:46:30;8.30;99.90
7648;DHT22;3866;48.020;11.720;2023-04-15T12:48:57;8.30;99.90
7648;DHT22;3866;48.020;11.720;2023-04-15T12:51:24;8.40;99.90
7648;DHT22;3866;48.020;11.720;2023-04-15T12:53:51;8.30;99.90
7648;DHT22;3866;48.020;11.720;2023-04-15T12:56:18;8.30;99.90
7648;DHT22;3866;48.020;11.720;2023-04-15T12:58:47;8.30;99.90
7648;DHT22;3866;48.020;11.720;2023-04-15T13:01:13;8.30;99.90
7648;DHT22;3866;48.020;11.720;2023-04-15T13:03:40;8.20;99.90
7648;DHT22;3866;48.020;11.720;2023-04-15T13:06:07;8.10;99.90
7648;DHT22;3866;48.020;11.720;2023-04-15T13:08:34;8.20;99.90
7648;DHT22;3866;48.020;11.720;2023-04-15T13:11:01;8.20;99.90
7648;DHT22;3866;48.020;11.720;2023-04-15T13:13:29;8.10;99.90
7648;DHT22;3866;48.020;11.720;2023-04-15T13:15:57;8.10;99.90
7648;DHT22;3866;48.020;11.720;2023-04-15T13:18:25;8.20;99.90
7648;DHT22;3866;48.020;11.720;2023-04-15T13:20:53;8.20;99.90
7648;DHT22;3866;48.020;11.720;2023-04-15T13:23:21;8.20;99.90
7648;DHT22;3866;48.020;11.720;2023-04-15T13:25:47;8.40;99.90
7648;DHT22;3866;48.020;11.720;2023-04-15T13:28:14;8.50;99.90
7648;DHT22;3866;48.020;11.720;2023-04-15T13:30:41;8.50;99.90
7648;DHT22;3866;48.020;11.720;2023-04-15T13:33:10;8.50;99.90
7648;DHT22;3866;48.020;11.720;2023-04-15T13:35:37;8.40;99.90
7648;DHT22;3866;48.020;11.720;2023-04-15T13:38:05;8.40;99.90
7648;DHT22;3866;48.020;11.720;2023-04-15T13:40:31;8.30;99.90
7648;DHT22;3866;48.020;11.720;2023-04-15T13:42:58;8.30;99.90
7648;DHT22;3866;48.020;11.720;2023-04-15T13:45:26;8.20;99.90
7648;DHT22;3866;48.020;11.720;2023-04-15T13:47:54;8.20;99.90
7648;DHT22;3866;48.020;11.720;2023-04-15T13:50:22;8.10;99.90
7648;DHT22;3866;48.020;11.720;2023-04-15T13:52:49;8.10;99.90
7648;DHT22;3866;48.020;11.720;2023-04-15T13:55:17;8.10;99.90
7648;DHT22;3866;48.020;11.720;2023-04-15T13:57:44;8.20;99.90
7648;DHT22;3866;48.020;11.720;2023-04-15T14:00:11;8.30;99.90
7648;DHT22;3866;48.020;11.720;2023-04-15T14:02:39;8.30;99.90
7648;DHT22;3866;48.020;11.720;2023-04-15T14:05:06;8.40;99.90
7648;DHT22;3866;48.020;11.720;2023-04-15T14:07:35;8.30;99.90
7648;DHT22;3866;48.020;11.720;2023-04-15T14:10:02;8.40;99.90
7648;DHT22;3866;48.020;11.720;2023-04-15T14:12:29;8.40;99.90
7648;DHT22;3866;48.020;11.720;2023-04-15T14:14:56;8.50;99.90
7648;DHT22;3866;48.020;11.720;2023-04-15T14:17:23;8.50;99.90
7648;DHT22;3866;48.020;11.720;2023-04-15T14:19:50;8.50;99.90
7648;DHT22;3866;48.020;11.720;2023-04-15T14:22:19;8.30;99.90
7648;DHT22;3866;48.020;11.720;2023-04-15T14:24:47;8.20;99.90
7648;DHT22;3866;48.020;11.720;2023-04-15T14:27:14;8.20;99.90
7648;DHT22;3866;48.020;11.720;2023-04-15T14:29:41;8.10;99.90
7648;DHT22;3866;48.020;11.720;2023-04-15T14:32:08;8.10;99.90
7648;DHT22;3866;48.020;11.720;2023-04-15T14:34:35;8.20;99.90
7648;DHT22;3866;48.020;11.720;2023-04-15T14:37:02;8.10;99.90
7648;DHT22;3866;48.020;11.720;2023-04-15T14:39:29;8.10;99.90
7648;DHT22;3866;48.020;11.720;2023-04-15T14:41:57;8.30;99.90
7648;DHT22;3866;48.020;11.720;2023-04-15T14:44:24;8.40;99.90
7648;DHT22;3866;48.020;11.720;2023-04-15T14:46:51;8.30;99.90
7648;DHT22;3866;48.020;11.720;2023-04-15T14:49:19;8.40;99.90
7648;DHT22;3866;48.020;11.720;2023-04-15T14:51:46;8.30;99.90
7648;DHT22;3866;48.020;11.720;2023-04-15T14:54:13;8.20;99.90
7648;DHT22;3866;48.020;11.720;2023-04-15T14:56:40;8.30;99.90
7648;DHT22;3866;48.020;11.720;2023-04-15T14:59:08;8.40;99.90
7648;DHT22;3866;48.020;11.720;2023-04-15T15:01:35;8.40;99.90
7648;DHT22;3866;48.020;11.720;2023-04-15T15:04:05;8.50;99.90
7648;DHT22;3866;48.020;11.720;2023-04-15T15:06:31;8.60;99.90
7648;DHT22;3866;48.020;11.720;2023-04-15T15:08:58;8.50;99.90
7648;DHT22;3866;48.020;11.720;2023-04-15T15:11:26;8.50;99.90
7648;DHT22;3866;48.020;11.720;2023-04-15T15:13:54;8.70;99.90
7648;DHT22;3866;48.020;11.720;2023-04-15T15:16:23;8.60;99.90
7648;DHT22;3866;48.020;11.720;2023-04-15T15:18:50;8.60;99.90
7648;DHT22;3866;48.020;11.720;2023-04-15T15:21:17;8.50;99.90
7648;DHT22;3866;48.020;11.720;2023-04-15T15:23:44;8.60;99.90
7648;DHT22;3866;48.020;11.720;2023-04-15T15:26:12;8.60;99.90
7648;DHT22;3866;48.020;11.720;2023-04-15T15:28:39;8.50;99.90
7648;DHT22;3866;48.020;11.720;2023-04-15T15:31:06;8.40;99.90
7648;DHT22;3866;48.020;11.720;2023-04-15T15:33:34;8.40;99.90
7648;DHT22;3866;48.020;11.720;2023-04-15T15:36:02;8.40;99.90
7648;DHT22;3866;48.020;11.720;2023-04-15T15:38:29;8.30;99.90
7648;DHT22;3866;48.020;11.720;2023-04-15T15:40:56;8.40;99.90
7648;DHT22;3866;48.020;11.720;2023-04-15T15:43:23;8.20;99.90
7648;DHT22;3866;48.020;11.720;2023-04-15T15:45:50;8.20;99.90
7648;DHT22;3866;48.020;11.720;2023-04-15T15:48:19;8.00;99.90
7648;DHT22;3866;48.020;11.720;2023-04-15T15:50:48;8.10;99.90
7648;DHT22;3866;48.020;11.720;2023-04-15T15:53:15;7.70;99.90
7648;DHT22;3866;48.020;11.720;2023-04-15T15:55:45;7.70;99.90
7648;DHT22;3866;48.020;11.720;2023-04-15T15:58:12;7.60;99.90
7648;DHT22;3866;48.020;11.720;2023-04-15T16:00:40;7.50;99.90
7648;DHT22;3866;48.020;11.720;2023-04-15T16:03:07;7.50;99.90
7648;DHT22;3866;48.020;11.720;2023-04-15T16:05:34;7.40;99.90
7648;DHT22;3866;48.020;11.720;2023-04-15T16:08:03;7.30;99.90
7648;DHT22;3866;48.020;11.720;2023-04-15T16:10:30;7.20;99.90